createdAt,value
2022-11-13T00:00:26.334Z,0.40
2022-11-13T00:02:53.788Z,0.30
2022-11-13T00:05:21.279Z,0.50
2022-11-13T00:07:48.680Z,0.40
2022-11-13T00:10:16.322Z,0.40
2022-11-13T00:12:43.722Z,0.40
2022-11-13T00:15:11.545Z,0.40
2022-11-13T00:17:38.926Z,0.47
2022-11-13T00:20:06.492Z,0.50
2022-11-13T00:22:33.909Z,0.30
2022-11-13T00:25:01.360Z,0.40
2022-11-13T00:27:32.276Z,0.30
2022-11-13T00:29:59.656Z,0.30
2022-11-13T00:32:29.058Z,0.50
2022-11-13T00:34:56.403Z,0.37
2022-11-13T00:37:23.835Z,0.40
2022-11-13T00:39:53.410Z,0.30
2022-11-13T00:42:24.353Z,0.40
2022-11-13T00:44:51.822Z,0.30
2022-11-13T00:47:19.283Z,0.30
2022-11-13T00:49:46.626Z,0.30
2022-11-13T00:52:14.110Z,0.30
2022-11-13T00:54:41.515Z,0.30
2022-11-13T00:57:08.989Z,0.20
2022-11-13T00:59:36.332Z,0.33
2022-11-13T01:02:03.821Z,0.20
2022-11-13T01:04:31.349Z,0.50
2022-11-13T01:06:58.810Z,0.30
2022-11-13T01:09:26.089Z,0.30
2022-11-13T01:11:53.901Z,0.30
2022-11-13T01:14:21.191Z,0.20
2022-11-13T01:16:48.507Z,0.20
2022-11-13T01:19:15.979Z,0.30
2022-11-13T01:21:43.381Z,0.20
2022-11-13T01:24:10.766Z,0.40
2022-11-13T01:26:38.159Z,0.20
2022-11-13T01:29:07.211Z,0.20
2022-11-13T01:31:34.597Z,0.20
2022-11-13T01:34:01.975Z,0.27
2022-11-13T01:36:32.191Z,0.20
2022-11-13T01:38:59.560Z,0.20
2022-11-13T01:41:31.272Z,0.20
2022-11-13T01:43:59.062Z,0.20
2022-11-13T01:46:27.718Z,0.20
2022-11-13T01:49:21.574Z,0.20
2022-11-13T01:51:48.893Z,0.30
2022-11-13T01:54:17.985Z,0.20
2022-11-13T01:56:45.940Z,0.20
2022-11-13T01:59:28.122Z,0.20
2022-11-13T02:01:56.474Z,0.30
2022-11-13T02:04:24.359Z,0.23
2022-11-13T02:07:11.882Z,0.23
2022-11-13T02:09:41.095Z,0.20
2022-11-13T02:12:10.291Z,0.20
2022-11-13T02:14:39.370Z,0.13
2022-11-13T02:17:09.004Z,0.20
2022-11-13T02:19:48.026Z,0.20
2022-11-13T02:22:15.364Z,0.10
2022-11-13T02:24:45.538Z,0.10
2022-11-13T02:27:18.722Z,0.20
2022-11-13T02:29:46.106Z,0.20
2022-11-13T02:32:13.565Z,0.20
2022-11-13T02:34:41.019Z,0.20
2022-11-13T02:37:08.379Z,0.20
2022-11-13T02:39:35.750Z,0.20
2022-11-13T02:42:03.104Z,0.10
2022-11-13T02:44:33.562Z,0.30
2022-11-13T02:47:01.068Z,0.40
2022-11-13T02:49:28.459Z,0.20
2022-11-13T02:51:55.958Z,0.20
2022-11-13T02:54:23.386Z,0.20
2022-11-13T02:56:50.694Z,0.20
2022-11-13T02:59:18.100Z,0.17
2022-11-13T03:01:45.922Z,0.20
2022-11-13T03:04:13.364Z,0.20
2022-11-13T03:06:40.936Z,0.20
2022-11-13T03:09:08.519Z,0.20
2022-11-13T03:11:35.981Z,0.20
2022-11-13T03:14:03.312Z,0.33
2022-11-13T03:16:35.775Z,0.20
2022-11-13T03:19:03.568Z,0.30
2022-11-13T03:21:31.605Z,0.37
2022-11-13T03:23:58.982Z,0.20
2022-11-13T03:26:28.399Z,0.10
2022-11-13T03:28:55.940Z,0.30
2022-11-13T03:31:23.553Z,0.10
2022-11-13T03:33:53.515Z,0.20
2022-11-13T03:36:20.994Z,0.20
2022-11-13T03:38:48.364Z,0.10
2022-11-13T03:41:15.734Z,0.20
2022-11-13T03:43:43.396Z,0.40
2022-11-13T03:46:10.781Z,0.37
2022-11-13T03:48:38.193Z,0.17
2022-11-13T03:51:05.663Z,0.20
2022-11-13T03:53:32.980Z,0.20
2022-11-13T03:56:00.497Z,0.30
2022-11-13T03:58:28.136Z,0.20
2022-11-13T04:00:56.221Z,0.50
2022-11-13T04:03:23.995Z,0.20
2022-11-13T04:05:51.519Z,0.30
2022-11-13T04:08:19.104Z,0.27
2022-11-13T04:10:46.649Z,0.20
2022-11-13T04:13:14.067Z,0.17
2022-11-13T04:15:41.482Z,0.17
2022-11-13T04:18:08.873Z,0.30
2022-11-13T04:20:36.297Z,0.17
2022-11-13T04:23:07.968Z,0.20
2022-11-13T04:25:35.315Z,0.20
2022-11-13T04:28:02.730Z,0.20
2022-11-13T04:30:30.175Z,0.13
2022-11-13T04:32:57.520Z,0.20
2022-11-13T04:35:24.786Z,0.20
2022-11-13T04:37:52.120Z,0.40
2022-11-13T04:40:19.496Z,0.30
2022-11-13T04:42:49.866Z,0.13
2022-11-13T04:45:21.592Z,0.20
2022-11-13T04:47:49.127Z,0.30
2022-11-13T04:50:16.913Z,0.20
2022-11-13T04:52:44.451Z,0.27
2022-11-13T04:55:12.290Z,0.20
2022-11-13T04:57:39.924Z,0.30
2022-11-13T05:00:08.362Z,0.20
2022-11-13T05:02:36.156Z,0.20
2022-11-13T05:05:05.149Z,0.13
2022-11-13T05:07:35.843Z,0.30
2022-11-13T05:10:03.182Z,0.17
2022-11-13T05:12:30.566Z,0.10
2022-11-13T05:14:57.959Z,0.10
2022-11-13T05:17:25.439Z,0.20
2022-11-13T05:19:52.859Z,0.10
2022-11-13T05:22:20.161Z,0.40
2022-11-13T05:24:47.525Z,0.40
2022-11-13T05:27:17.482Z,0.20
2022-11-13T05:29:45.306Z,0.10
2022-11-13T05:32:12.924Z,0.30
2022-11-13T05:34:40.233Z,0.20
2022-11-13T05:37:07.601Z,0.30
2022-11-13T05:39:35.028Z,0.30
2022-11-13T05:42:02.391Z,0.47
2022-11-13T05:44:29.737Z,0.20
2022-11-13T05:46:57.152Z,0.50
2022-11-13T05:49:24.505Z,0.40
2022-11-13T05:51:51.863Z,0.40
2022-11-13T05:54:19.195Z,0.20
2022-11-13T05:56:46.574Z,0.30
2022-11-13T05:59:13.980Z,0.33
2022-11-13T06:01:41.576Z,0.33
2022-11-13T06:04:09.222Z,0.30
2022-11-13T06:06:36.703Z,0.40
2022-11-13T06:09:05.340Z,0.20
2022-11-13T06:11:32.954Z,0.27
2022-11-13T06:14:01.692Z,0.30
2022-11-13T06:16:30.467Z,0.30
2022-11-13T06:18:59.161Z,0.30
2022-11-13T06:21:28.855Z,0.20
2022-11-13T06:23:57.339Z,0.20
2022-11-13T06:26:26.012Z,0.20
2022-11-13T06:28:53.928Z,0.30
2022-11-13T06:31:22.698Z,0.23
2022-11-13T06:33:50.396Z,0.20
2022-11-13T06:36:21.897Z,0.27
2022-11-13T06:38:49.979Z,0.20
2022-11-13T06:41:18.640Z,0.20
2022-11-13T06:43:47.429Z,0.30
2022-11-13T06:46:16.260Z,0.50
2022-11-13T06:48:43.678Z,0.20
2022-11-13T06:51:13.950Z,0.30
2022-11-13T06:53:41.306Z,0.30
2022-11-13T06:56:08.885Z,0.30
2022-11-13T06:58:36.688Z,0.40
2022-11-13T07:01:11.808Z,0.40
2022-11-13T07:03:39.462Z,0.50
2022-11-13T07:06:07.664Z,0.40
2022-11-13T07:08:38.050Z,0.40
2022-11-13T07:11:05.451Z,0.37
2022-11-13T07:13:32.806Z,0.30
2022-11-13T07:16:15.879Z,0.33
2022-11-13T07:18:44.810Z,0.20
2022-11-13T07:21:13.545Z,0.40
2022-11-13T07:23:43.379Z,0.47
2022-11-13T07:26:14.338Z,0.40
2022-11-13T07:28:41.696Z,0.57
2022-11-13T07:31:10.535Z,0.70
2022-11-13T07:33:38.053Z,0.40
2022-11-13T07:36:05.932Z,0.60
2022-11-13T07:38:33.334Z,0.80
2022-11-13T07:41:01.250Z,0.90
2022-11-13T07:43:28.708Z,0.70
2022-11-13T07:45:58.452Z,0.90
2022-11-13T07:48:27.986Z,0.77
2022-11-13T07:50:56.149Z,0.40
2022-11-13T07:53:23.769Z,0.40
2022-11-13T07:55:51.145Z,0.67
2022-11-13T07:58:18.572Z,0.80
2022-11-13T08:00:46.045Z,0.87
2022-11-13T08:03:14.543Z,1.37
2022-11-13T08:05:42.364Z,2.30
2022-11-13T08:08:12.541Z,3.13
2022-11-13T08:10:39.944Z,1.50
2022-11-13T08:13:09.158Z,0.97
2022-11-13T08:15:36.979Z,1.13
2022-11-13T08:18:05.139Z,1.00
2022-11-13T08:20:33.209Z,0.77
2022-11-13T08:23:01.640Z,1.10
2022-11-13T08:25:29.942Z,0.80
2022-11-13T08:27:57.373Z,1.20
2022-11-13T08:30:25.453Z,1.20
2022-11-13T08:32:53.192Z,1.00
2022-11-13T08:35:23.021Z,1.27
2022-11-13T08:37:54.034Z,0.77
2022-11-13T08:40:21.666Z,0.80
2022-11-13T08:42:49.149Z,0.53
2022-11-13T08:45:16.564Z,0.70
2022-11-13T08:47:44.018Z,0.90
2022-11-13T08:50:11.451Z,0.80
2022-11-13T08:52:41.885Z,0.97
2022-11-13T08:55:09.412Z,0.70
2022-11-13T08:57:36.918Z,0.83
2022-11-13T09:00:06.122Z,0.97
2022-11-13T09:02:33.537Z,0.87
2022-11-13T09:05:00.926Z,0.80
2022-11-13T09:07:28.529Z,0.60
2022-11-13T09:09:56.003Z,0.80
2022-11-13T09:12:23.401Z,0.77
2022-11-13T09:14:50.798Z,0.60
2022-11-13T09:17:18.594Z,0.40
2022-11-13T09:19:46.168Z,0.70
2022-11-13T09:22:13.641Z,0.50
2022-11-13T09:24:44.106Z,0.53
2022-11-13T09:27:11.480Z,0.63
2022-11-13T09:29:38.924Z,0.30
2022-11-13T09:32:06.569Z,0.60
2022-11-13T09:34:34.626Z,0.30
2022-11-13T09:37:02.007Z,0.50
2022-11-13T09:39:29.421Z,0.30
2022-11-13T09:42:17.060Z,0.50
2022-11-13T09:44:46.062Z,0.47
2022-11-13T09:47:16.281Z,0.50
2022-11-13T09:49:46.643Z,0.40
2022-11-13T09:52:16.854Z,0.40
2022-11-13T09:54:44.360Z,0.50
2022-11-13T09:57:11.684Z,0.50
2022-11-13T10:00:02.514Z,0.50
2022-11-13T10:02:48.614Z,0.57
2022-11-13T10:05:30.951Z,0.60
2022-11-13T10:08:01.445Z,0.40
2022-11-13T10:10:44.125Z,0.40
2022-11-13T10:13:14.315Z,0.40
2022-11-13T10:15:43.979Z,0.70
2022-11-13T10:18:17.634Z,0.60
2022-11-13T10:20:50.726Z,0.70
2022-11-13T10:23:22.250Z,0.70
2022-11-13T10:25:52.514Z,0.50
2022-11-13T10:28:48.832Z,0.60
2022-11-13T10:31:13.393Z,0.50
2022-11-13T10:33:40.856Z,0.50
2022-11-13T10:36:25.510Z,0.60
2022-11-13T10:39:11.123Z,0.50
2022-11-13T10:41:46.530Z,0.70
2022-11-13T10:44:30.016Z,0.60
2022-11-13T10:47:56.800Z,0.50
2022-11-13T10:50:20.519Z,0.70
2022-11-13T10:52:49.139Z,0.60
2022-11-13T10:55:34.963Z,0.70
2022-11-13T10:58:03.455Z,0.93
2022-11-13T11:00:32.360Z,0.70
2022-11-13T11:02:59.911Z,0.73
2022-11-13T11:05:27.742Z,0.50
2022-11-13T11:07:56.273Z,0.53
2022-11-13T11:10:23.765Z,0.60
2022-11-13T11:12:58.239Z,0.40
2022-11-13T11:15:28.459Z,0.60
2022-11-13T11:17:58.997Z,1.40
2022-11-13T11:20:26.762Z,0.60
2022-11-13T11:22:56.240Z,0.60
2022-11-13T11:25:35.770Z,0.77
2022-11-13T11:28:10.536Z,0.70
2022-11-13T11:30:43.312Z,0.73
2022-11-13T11:33:14.102Z,0.70
2022-11-13T11:35:44.459Z,0.67
2022-11-13T11:38:32.351Z,0.50
2022-11-13T11:41:04.730Z,0.50
2022-11-13T11:43:35.431Z,0.73
2022-11-13T11:46:02.916Z,0.73
2022-11-13T11:48:31.732Z,0.60
2022-11-13T11:50:59.331Z,0.80
2022-11-13T11:53:49.855Z,0.77
2022-11-13T11:56:24.004Z,0.60
2022-11-13T11:58:57.354Z,1.23
2022-11-13T12:01:24.818Z,0.67
2022-11-13T12:04:07.710Z,0.73
2022-11-13T12:06:44.097Z,0.57
2022-11-13T12:09:20.740Z,0.60
2022-11-13T12:11:59.338Z,0.63
2022-11-13T12:14:37.743Z,0.77
2022-11-13T12:17:21.969Z,0.80
2022-11-13T12:19:59.872Z,0.70
2022-11-13T12:23:05.850Z,0.60
2022-11-13T12:25:52.019Z,0.70
2022-11-13T12:28:27.598Z,0.68
2022-11-13T12:31:07.213Z,0.47
2022-11-13T12:33:38.716Z,0.68
2022-11-13T12:36:06.381Z,0.73
2022-11-13T12:38:42.859Z,0.63
2022-11-13T12:41:10.223Z,0.90
2022-11-13T12:43:46.912Z,0.60
2022-11-13T12:46:14.797Z,0.63
2022-11-13T12:48:51.255Z,0.65
2022-11-13T12:51:19.460Z,0.70
2022-11-13T12:53:51.068Z,0.70
2022-11-13T12:56:21.167Z,0.70
2022-11-13T12:59:23.665Z,0.90
2022-11-13T13:01:50.255Z,0.70
2022-11-13T13:04:40.409Z,0.60
2022-11-13T13:07:10.875Z,0.60
2022-11-13T13:09:56.877Z,0.70
2022-11-13T13:12:42.985Z,0.60
2022-11-13T13:15:16.511Z,0.45
2022-11-13T13:17:44.005Z,0.60
2022-11-13T13:20:14.213Z,0.60
2022-11-13T13:22:41.631Z,0.47
2022-11-13T13:25:29.417Z,0.50
2022-11-13T13:28:01.110Z,0.40
2022-11-13T13:30:31.392Z,0.57
2022-11-13T13:33:04.527Z,0.60
2022-11-13T13:35:42.059Z,0.40
2022-11-13T13:38:32.580Z,0.43
2022-11-13T13:41:23.485Z,0.60
2022-11-13T13:43:50.944Z,0.60
2022-11-13T13:46:21.865Z,0.50
2022-11-13T13:48:51.641Z,0.60
2022-11-13T13:51:37.855Z,0.50
2022-11-13T13:54:07.536Z,0.57
2022-11-13T13:56:35.875Z,0.60
2022-11-13T13:59:03.278Z,0.40
2022-11-13T14:01:32.503Z,0.70
2022-11-13T14:04:12.275Z,0.68
2022-11-13T14:06:48.375Z,0.50
2022-11-13T14:09:23.482Z,0.50
2022-11-13T14:12:09.249Z,0.60
2022-11-13T14:14:40.154Z,0.50
2022-11-13T14:17:07.920Z,0.60
2022-11-13T14:19:35.294Z,0.50
2022-11-13T14:22:03.837Z,0.47
2022-11-13T14:24:34.227Z,0.60
2022-11-13T14:27:04.582Z,0.90
2022-11-13T14:29:34.794Z,0.30
2022-11-13T14:32:06.878Z,0.47
2022-11-13T14:34:34.387Z,0.40
2022-11-13T14:37:28.115Z,0.70
2022-11-13T14:39:56.577Z,0.35
2022-11-13T14:42:27.839Z,0.40
2022-11-13T14:44:55.305Z,0.57
2022-11-13T14:47:22.605Z,0.50
2022-11-13T14:49:50.157Z,0.55
2022-11-13T14:52:24.802Z,0.20
2022-11-13T14:55:18.265Z,0.40
2022-11-13T14:57:51.881Z,0.35
2022-11-13T15:00:20.478Z,0.40
2022-11-13T15:02:47.890Z,0.40
2022-11-13T15:05:15.358Z,0.40
2022-11-13T15:07:43.226Z,0.80
2022-11-13T15:10:14.823Z,0.60
2022-11-13T15:12:42.682Z,0.50
2022-11-13T15:15:14.690Z,0.35
2022-11-13T15:17:43.678Z,0.40
2022-11-13T15:20:15.348Z,0.43
2022-11-13T15:22:42.860Z,0.35
2022-11-13T15:25:13.680Z,0.47
2022-11-13T15:27:43.282Z,0.40
2022-11-13T15:30:11.757Z,0.40
2022-11-13T15:32:39.204Z,0.50
2022-11-13T15:35:07.496Z,0.30
2022-11-13T15:37:34.936Z,0.50
2022-11-13T15:40:02.822Z,0.47
2022-11-13T15:42:32.904Z,0.30
2022-11-13T15:45:00.297Z,0.30
2022-11-13T15:47:29.061Z,0.20
2022-11-13T15:50:13.024Z,0.40
2022-11-13T15:52:42.134Z,0.50
2022-11-13T15:55:18.285Z,0.63
2022-11-13T15:57:45.662Z,0.50
2022-11-13T16:00:16.209Z,0.57
2022-11-13T16:02:43.548Z,0.67
2022-11-13T16:05:10.979Z,0.80
2022-11-13T16:07:41.286Z,0.60
2022-11-13T16:10:12.909Z,0.70
2022-11-13T16:12:40.252Z,0.80
2022-11-13T16:15:07.979Z,0.70
2022-11-13T16:17:40.818Z,0.50
2022-11-13T16:20:11.182Z,0.83
2022-11-13T16:22:38.539Z,0.60
2022-11-13T16:25:06.615Z,1.03
2022-11-13T16:27:36.674Z,0.60
2022-11-13T16:30:07.110Z,0.80
2022-11-13T16:32:34.853Z,0.73
2022-11-13T16:35:02.213Z,0.50
2022-11-13T16:37:29.654Z,0.60
2022-11-13T16:39:57.141Z,0.50
2022-11-13T16:42:29.820Z,0.80
2022-11-13T16:44:58.198Z,0.80
2022-11-13T16:47:26.642Z,1.17
2022-11-13T16:49:54.119Z,1.67
2022-11-13T16:52:21.449Z,2.70
2022-11-13T16:54:48.890Z,1.80
2022-11-13T16:57:17.274Z,0.70
2022-11-13T16:59:44.797Z,1.20
2022-11-13T17:02:16.693Z,1.30
2022-11-13T17:04:44.621Z,0.97
2022-11-13T17:07:13.257Z,1.33
2022-11-13T17:09:52.074Z,1.00
2022-11-13T17:12:26.772Z,0.60
2022-11-13T17:14:54.159Z,0.80
2022-11-13T17:17:21.553Z,0.67
2022-11-13T17:19:48.904Z,0.70
2022-11-13T17:22:17.151Z,1.10
2022-11-13T17:24:44.610Z,0.93
2022-11-13T17:27:12.030Z,0.80
2022-11-13T17:29:39.448Z,1.03
2022-11-13T17:32:07.043Z,0.67
2022-11-13T17:34:34.653Z,0.90
2022-11-13T17:37:02.161Z,1.20
2022-11-13T17:39:29.549Z,0.87
2022-11-13T17:41:57.003Z,0.93
2022-11-13T17:44:24.418Z,0.80
2022-11-13T17:46:52.244Z,0.70
2022-11-13T17:49:19.600Z,0.50
2022-11-13T17:51:46.919Z,0.80
2022-11-13T17:54:14.310Z,1.03
2022-11-13T17:56:42.961Z,0.90
2022-11-13T17:59:13.146Z,1.80
2022-11-13T18:01:40.522Z,1.63
2022-11-13T18:04:07.951Z,0.80
2022-11-13T18:06:35.374Z,1.30
2022-11-13T18:09:02.726Z,1.10
2022-11-13T18:11:30.841Z,0.80
2022-11-13T18:13:58.583Z,1.00
2022-11-13T18:16:31.612Z,1.00
2022-11-13T18:19:00.558Z,0.90
2022-11-13T18:21:31.973Z,0.93
2022-11-13T18:23:59.417Z,0.80
2022-11-13T18:26:27.412Z,0.90
2022-11-13T18:28:57.779Z,1.00
2022-11-13T18:31:25.200Z,1.00
2022-11-13T18:33:52.837Z,1.20
2022-11-13T18:36:21.277Z,1.50
2022-11-13T18:38:48.677Z,1.10
2022-11-13T18:41:17.240Z,1.10
2022-11-13T18:43:48.533Z,1.20
2022-11-13T18:46:17.781Z,1.00
2022-11-13T18:48:45.895Z,1.20
2022-11-13T18:51:15.010Z,0.87
2022-11-13T18:53:43.753Z,0.90
2022-11-13T18:56:12.904Z,1.00
2022-11-13T18:58:41.134Z,1.30
2022-11-13T19:01:18.886Z,1.40
2022-11-13T19:06:37.766Z,1.00
2022-11-13T19:09:10.912Z,1.13
2022-11-13T19:11:38.996Z,1.00
2022-11-13T19:14:06.626Z,1.27
2022-11-13T19:16:35.315Z,1.00
2022-11-13T19:19:04.251Z,1.10
2022-11-13T19:21:32.526Z,1.10
2022-11-13T19:24:01.271Z,1.00
2022-11-13T19:26:28.857Z,1.00
2022-11-13T19:28:59.659Z,0.97
2022-11-13T19:31:28.007Z,1.10
2022-11-13T19:33:59.856Z,1.10
2022-11-13T19:36:28.372Z,1.10
2022-11-13T19:38:56.263Z,1.20
2022-11-13T19:41:24.081Z,1.10
2022-11-13T19:43:51.457Z,1.50
2022-11-13T19:46:19.530Z,1.13
2022-11-13T19:48:49.326Z,1.13
2022-11-13T19:51:16.683Z,0.90
2022-11-13T19:53:46.200Z,1.10
2022-11-13T19:56:14.857Z,1.07
2022-11-13T19:58:44.505Z,1.00
2022-11-13T20:01:12.692Z,0.90
2022-11-13T20:03:40.419Z,0.83
2022-11-13T20:06:08.188Z,0.90
2022-11-13T20:08:35.826Z,1.00
2022-11-13T20:11:07.597Z,0.80
2022-11-13T20:13:36.724Z,0.93
2022-11-13T20:16:07.800Z,1.20
2022-11-13T20:18:35.221Z,1.13
2022-11-13T20:21:02.736Z,1.07
2022-11-13T20:23:30.342Z,1.13
2022-11-13T20:26:01.883Z,1.00
2022-11-13T20:28:30.267Z,1.03
2022-11-13T20:31:08.146Z,1.03
2022-11-13T20:33:36.057Z,1.27
2022-11-13T20:36:06.659Z,1.30
2022-11-13T20:38:35.274Z,1.23
2022-11-13T20:41:06.319Z,1.00
2022-11-13T20:43:33.981Z,1.00
2022-11-13T20:46:04.211Z,1.07
2022-11-13T20:48:31.842Z,1.23
2022-11-13T20:51:05.687Z,1.17
2022-11-13T20:53:33.130Z,1.13
2022-11-13T20:56:00.472Z,1.10
2022-11-13T20:58:28.203Z,1.27
2022-11-13T21:01:02.518Z,1.27
2022-11-13T21:03:29.910Z,1.20
2022-11-13T21:05:57.247Z,1.20
2022-11-13T21:08:25.156Z,0.97
2022-11-13T21:10:52.526Z,1.20
2022-11-13T21:13:20.114Z,1.07
2022-11-13T21:15:47.479Z,0.90
2022-11-13T21:18:14.906Z,1.10
2022-11-13T21:20:42.288Z,1.10
2022-11-13T21:23:09.788Z,1.00
2022-11-13T21:25:37.383Z,1.00
2022-11-13T21:28:04.866Z,0.80
2022-11-13T21:30:32.371Z,1.20
2022-11-13T21:33:02.806Z,0.90
2022-11-13T21:35:30.493Z,0.67
2022-11-13T21:37:57.944Z,1.00
2022-11-13T21:40:25.421Z,0.80
2022-11-13T21:42:52.759Z,0.63
2022-11-13T21:45:20.149Z,0.70
2022-11-13T21:47:47.619Z,0.60
2022-11-13T21:50:15.047Z,0.70
2022-11-13T21:52:42.399Z,0.80
2022-11-13T21:55:10.252Z,0.70
2022-11-13T21:57:37.614Z,0.73
2022-11-13T22:00:05.319Z,1.00
2022-11-13T22:02:32.704Z,0.70
2022-11-13T22:05:03.096Z,0.63
2022-11-13T22:07:30.584Z,0.80
2022-11-13T22:09:57.933Z,0.70
2022-11-13T22:12:25.232Z,0.77
2022-11-13T22:14:52.602Z,0.60
2022-11-13T22:17:20.051Z,0.70
2022-11-13T22:19:47.413Z,0.63
2022-11-13T22:22:14.764Z,0.70
2022-11-13T22:24:42.106Z,0.70
2022-11-13T22:27:11.629Z,0.63
2022-11-13T22:29:39.132Z,0.70
2022-11-13T22:32:06.438Z,0.80
2022-11-13T22:34:33.742Z,0.70
2022-11-13T22:37:04.186Z,0.60
2022-11-13T22:39:31.629Z,0.63
2022-11-13T22:41:58.974Z,0.80
2022-11-13T22:44:35.061Z,0.73
2022-11-13T22:47:13.469Z,0.70
2022-11-13T22:49:40.754Z,0.93
2022-11-13T22:52:08.143Z,1.10
2022-11-13T22:54:35.479Z,0.70
2022-11-13T22:57:04.270Z,0.90
2022-11-13T22:59:31.647Z,0.70
2022-11-13T23:01:58.960Z,0.97
2022-11-13T23:04:26.356Z,0.90
2022-11-13T23:06:53.752Z,0.60
2022-11-13T23:09:21.102Z,0.70
2022-11-13T23:11:48.494Z,0.80
2022-11-13T23:14:15.982Z,1.10
2022-11-13T23:16:43.665Z,1.13
2022-11-13T23:19:11.011Z,0.70
2022-11-13T23:21:38.386Z,0.80
2022-11-13T23:24:05.921Z,0.70
2022-11-13T23:26:33.364Z,0.70
2022-11-13T23:29:03.610Z,1.07
2022-11-13T23:31:30.935Z,0.93
2022-11-13T23:33:58.285Z,0.80
2022-11-13T23:36:27.519Z,0.93
2022-11-13T23:38:54.862Z,1.07
2022-11-13T23:41:22.232Z,0.70
2022-11-13T23:46:36.868Z,0.70
2022-11-13T23:49:04.278Z,0.80
2022-11-13T23:51:31.650Z,0.67
2022-11-13T23:53:58.958Z,0.90
2022-11-13T23:56:26.371Z,0.80
2022-11-13T23:58:53.779Z,0.97
